Thayer, Nebraska
Current Conditions -  °F | °C
As of 10:15 AM on Thursday 30 Oct 2014 (Local Time) from KJYR Reporting Station
Clear Clear  
Wind Chill: 52°   Ceiling: Unl
Heat Index: 52°   Visibility: 10mi
Dew Point: 37°   Wind: 18mph
Humidity: 58%   Direction: 320°NW
Pressure: 30.12"   Gusts: NA
Location:  40.928°N, 97.4416°W
Report Text: KJYR 301515Z AUTO 32016KT 10SM CLR 11/03 A3012 RMK AO2
Loading
Personal Weather Stations






























Interactive Weather Map
Tropical Storm Tracking
New forecast layout! Learn more

10-Day Weather Forecast

Advertisements
Track Severe Weather on mobile